createdAt,value
2019-05-28T00:00:42.755Z,1000.01
2019-05-28T00:01:52.713Z,999.98
2019-05-28T00:03:03.070Z,999.96
2019-05-28T00:04:13.030Z,999.93
2019-05-28T00:05:22.774Z,999.91
2019-05-28T00:06:32.724Z,999.93
2019-05-28T00:07:42.166Z,999.86
2019-05-28T00:08:51.872Z,999.88
2019-05-28T00:10:02.252Z,999.84
2019-05-28T00:11:13.259Z,999.87
2019-05-28T00:12:23.002Z,999.86
2019-05-28T00:13:32.466Z,999.84
2019-05-28T00:14:42.176Z,999.85
2019-05-28T00:15:52.154Z,999.82
2019-05-28T00:17:01.880Z,999.85
2019-05-28T00:18:11.343Z,999.82
2019-05-28T00:19:21.039Z,999.8
2019-05-28T00:20:30.537Z,999.78
2019-05-28T00:21:40.246Z,999.73
2019-05-28T00:22:50.199Z,999.72
2019-05-28T00:23:59.936Z,999.71
2019-05-28T00:25:10.035Z,999.73
2019-05-28T00:26:19.736Z,999.69
2019-05-28T00:27:29.688Z,999.69
2019-05-28T00:28:39.441Z,999.65
2019-05-28T00:29:49.393Z,999.65
2019-05-28T00:30:59.358Z,999.64
2019-05-28T00:32:09.316Z,999.6
2019-05-28T00:33:19.321Z,999.62
2019-05-28T00:34:28.773Z,999.57
2019-05-28T00:35:38.754Z,999.6
2019-05-28T00:36:48.741Z,999.62
2019-05-28T00:37:58.192Z,999.64
2019-05-28T00:39:08.148Z,999.68
2019-05-28T00:40:18.075Z,999.64
2019-05-28T00:41:27.764Z,999.66
2019-05-28T00:42:37.466Z,999.66
2019-05-28T00:43:47.434Z,999.68
2019-05-28T00:44:57.133Z,999.64
2019-05-28T00:46:06.829Z,999.64
2019-05-28T00:47:16.539Z,999.6
2019-05-28T00:48:26.494Z,999.63
2019-05-28T00:49:36.224Z,999.67
2019-05-28T00:50:50.010Z,999.64
2019-05-28T00:51:59.728Z,999.64
2019-05-28T00:53:09.180Z,999.68
2019-05-28T00:54:18.887Z,999.61
2019-05-28T00:55:28.857Z,999.62
2019-05-28T00:56:38.586Z,999.6
2019-05-28T00:57:48.726Z,999.53
2019-05-28T00:58:58.432Z,999.51
2019-05-28T01:00:07.888Z,999.55
2019-05-28T01:01:17.843Z,999.56
2019-05-28T01:02:27.833Z,999.53
2019-05-28T01:03:37.537Z,999.56
2019-05-28T01:04:47.654Z,999.56
2019-05-28T01:05:57.712Z,999.54
2019-05-28T01:07:07.679Z,999.51
2019-05-28T01:08:17.634Z,999.5
2019-05-28T01:09:27.592Z,999.47
2019-05-28T01:10:37.038Z,999.46
2019-05-28T01:11:46.997Z,999.48
2019-05-28T01:12:56.726Z,999.43
2019-05-28T01:14:06.425Z,999.45
2019-05-28T01:15:16.403Z,999.42
2019-05-28T01:16:25.866Z,999.42
2019-05-28T01:17:35.567Z,999.39
2019-05-28T01:18:45.752Z,999.41
2019-05-28T01:19:55.704Z,999.4
2019-05-28T01:21:05.413Z,999.4
2019-05-28T01:22:15.177Z,999.4
2019-05-28T01:23:24.640Z,999.4
2019-05-28T01:24:34.092Z,999.38
2019-05-28T01:25:43.562Z,999.4
2019-05-28T01:26:53.007Z,999.39
2019-05-28T01:28:02.997Z,999.35
2019-05-28T01:29:12.732Z,999.36
2019-05-28T01:30:22.434Z,999.38
2019-05-28T01:31:32.403Z,999.35
2019-05-28T01:32:42.134Z,999.37
2019-05-28T01:33:52.139Z,999.38
2019-05-28T01:35:02.093Z,999.45
2019-05-28T01:36:12.072Z,999.4
2019-05-28T01:37:22.032Z,999.37
2019-05-28T01:38:32.007Z,999.39
2019-05-28T01:39:42.007Z,999.39
2019-05-28T01:40:51.975Z,999.41
2019-05-28T01:42:01.992Z,999.44
2019-05-28T01:43:11.703Z,999.46
2019-05-28T01:44:21.649Z,999.47
2019-05-28T01:45:31.341Z,999.5
2019-05-28T01:46:41.114Z,999.48
2019-05-28T01:47:50.852Z,999.45
2019-05-28T01:49:02.968Z,999.45
2019-05-28T01:50:12.705Z,999.47
2019-05-28T01:51:22.421Z,999.44
2019-05-28T01:52:32.129Z,999.47
2019-05-28T01:53:42.095Z,999.47
2019-05-28T01:54:52.036Z,999.53
2019-05-28T01:56:01.906Z,999.51
2019-05-28T01:57:11.646Z,999.48
2019-05-28T01:58:21.622Z,999.47
2019-05-28T01:59:31.577Z,999.49
2019-05-28T02:00:41.566Z,999.47
2019-05-28T02:01:51.538Z,999.49
2019-05-28T02:03:00.994Z,999.43
2019-05-28T02:04:10.951Z,999.47
2019-05-28T02:05:20.890Z,999.48
2019-05-28T02:06:30.613Z,999.46
2019-05-28T02:07:40.623Z,999.48
2019-05-28T02:08:50.362Z,999.48
2019-05-28T02:10:00.071Z,999.46
2019-05-28T02:11:10.027Z,999.48
2019-05-28T02:12:19.968Z,999.45
2019-05-28T02:13:29.951Z,999.44
2019-05-28T02:14:39.652Z,999.51
2019-05-28T02:15:49.366Z,999.47
2019-05-28T02:16:59.316Z,999.46
2019-05-28T02:18:09.284Z,999.46
2019-05-28T02:19:18.737Z,999.43
2019-05-28T02:20:28.191Z,999.42
2019-05-28T02:21:38.214Z,999.42
2019-05-28T02:22:48.184Z,999.43
2019-05-28T02:23:58.148Z,999.41
2019-05-28T02:25:07.864Z,999.41
2019-05-28T02:26:17.873Z,999.46
2019-05-28T02:27:27.318Z,999.43
2019-05-28T02:28:37.025Z,999.48
2019-05-28T02:29:46.482Z,999.46
2019-05-28T02:30:56.440Z,999.48
2019-05-28T02:32:06.171Z,999.45
2019-05-28T02:33:16.113Z,999.42
2019-05-28T02:34:26.085Z,999.43
2019-05-28T02:35:36.046Z,999.48
2019-05-28T02:36:46.044Z,999.43
2019-05-28T02:37:55.754Z,999.5
2019-05-28T02:39:05.736Z,999.47
2019-05-28T02:40:15.477Z,999.48
2019-05-28T02:41:24.924Z,999.46
2019-05-28T02:42:34.871Z,999.51
2019-05-28T02:43:44.567Z,999.48
2019-05-28T02:44:54.517Z,999.49
2019-05-28T02:46:04.466Z,999.52
2019-05-28T02:47:14.444Z,999.5
2019-05-28T02:48:24.447Z,999.49
2019-05-28T02:49:34.394Z,999.46
2019-05-28T02:50:43.839Z,999.43
2019-05-28T02:51:53.544Z,999.43
2019-05-28T02:53:03.261Z,999.48
2019-05-28T02:54:13.207Z,999.47
2019-05-28T02:55:22.915Z,999.5
2019-05-28T02:56:32.630Z,999.48
2019-05-28T02:57:42.595Z,999.49
2019-05-28T02:58:52.554Z,999.53
2019-05-28T03:00:02.540Z,999.53
2019-05-28T03:01:12.303Z,999.54
2019-05-28T03:02:22.264Z,999.55
2019-05-28T03:03:32.453Z,999.54
2019-05-28T03:04:42.183Z,999.54
2019-05-28T03:05:52.140Z,999.52
2019-05-28T03:07:01.852Z,999.49
2019-05-28T03:08:11.851Z,999.53
2019-05-28T03:09:21.566Z,999.51
2019-05-28T03:10:58.259Z,999.48
2019-05-28T03:12:11.514Z,999.5
2019-05-28T03:13:21.472Z,999.45
2019-05-28T03:14:31.419Z,999.49
2019-05-28T03:15:41.382Z,999.48
2019-05-28T03:16:51.362Z,999.48
2019-05-28T03:18:01.358Z,999.49
2019-05-28T03:19:11.145Z,999.48
2019-05-28T03:20:20.625Z,999.51
2019-05-28T03:21:30.585Z,999.48
2019-05-28T03:22:40.547Z,999.5
2019-05-28T03:23:50.507Z,999.52
2019-05-28T03:25:00.229Z,999.51
2019-05-28T03:26:10.207Z,999.52
2019-05-28T03:27:19.935Z,999.53
2019-05-28T03:28:29.883Z,999.5
2019-05-28T03:29:39.833Z,999.54
2019-05-28T03:30:49.530Z,999.54
2019-05-28T03:32:09.045Z,999.57
2019-05-28T03:33:19.152Z,999.54
2019-05-28T03:34:29.147Z,999.56
2019-05-28T03:35:42.263Z,999.53
2019-05-28T03:36:51.713Z,999.56
2019-05-28T03:38:01.171Z,999.56
2019-05-28T03:39:11.121Z,999.58
2019-05-28T03:40:21.101Z,999.57
2019-05-28T03:41:30.827Z,999.56
2019-05-28T03:42:40.819Z,999.54
2019-05-28T03:43:50.767Z,999.48
2019-05-28T03:45:00.471Z,999.49
2019-05-28T03:46:10.521Z,999.49
2019-05-28T03:47:20.472Z,999.47
2019-05-28T03:48:30.415Z,999.48
2019-05-28T03:49:39.869Z,999.47
2019-05-28T03:50:49.817Z,999.48
2019-05-28T03:51:59.867Z,999.47
2019-05-28T03:53:09.808Z,999.48
2019-05-28T03:54:19.776Z,999.48
2019-05-28T03:55:29.499Z,999.49
2019-05-28T03:56:39.455Z,999.43
2019-05-28T03:57:49.151Z,999.46
2019-05-28T03:58:59.097Z,999.45
2019-05-28T04:00:08.803Z,999.49
2019-05-28T04:01:18.550Z,999.49
2019-05-28T04:02:28.549Z,999.48
2019-05-28T04:03:38.496Z,999.46
2019-05-28T04:04:48.178Z,999.49
2019-05-28T04:05:58.153Z,999.5
2019-05-28T04:07:07.905Z,999.49
2019-05-28T04:08:17.859Z,999.45
2019-05-28T04:09:27.810Z,999.42
2019-05-28T04:10:41.491Z,999.4
2019-05-28T04:11:51.457Z,999.41
2019-05-28T04:13:01.432Z,999.46
2019-05-28T04:14:11.129Z,999.45
2019-05-28T04:15:21.401Z,999.45
2019-05-28T04:16:31.359Z,999.44
2019-05-28T04:17:41.308Z,999.46
2019-05-28T04:18:50.998Z,999.46
2019-05-28T04:20:00.967Z,999.47
2019-05-28T04:21:11.063Z,999.48
2019-05-28T04:22:21.031Z,999.49
2019-05-28T04:23:30.742Z,999.48
2019-05-28T04:24:44.430Z,999.48
2019-05-28T04:25:54.161Z,999.52
2019-05-28T04:27:04.217Z,999.52
2019-05-28T04:28:14.163Z,999.52
2019-05-28T04:29:23.877Z,999.53
2019-05-28T04:30:33.832Z,999.51
2019-05-28T04:31:43.539Z,999.52
2019-05-28T04:32:53.497Z,999.5
2019-05-28T04:34:03.207Z,999.52
2019-05-28T04:35:12.683Z,999.51
2019-05-28T04:36:22.727Z,999.48
2019-05-28T04:37:32.683Z,999.47
2019-05-28T04:38:42.679Z,999.5
2019-05-28T04:39:52.631Z,999.49
2019-05-28T04:41:02.017Z,999.48
2019-05-28T04:42:11.725Z,999.48
2019-05-28T04:43:21.529Z,999.48
2019-05-28T04:44:31.503Z,999.49
2019-05-28T04:45:41.466Z,999.49
2019-05-28T04:46:51.020Z,999.49
2019-05-28T04:48:01.018Z,999.51
2019-05-28T04:49:10.990Z,999.56
2019-05-28T04:50:20.957Z,999.51
2019-05-28T04:51:30.927Z,999.49
2019-05-28T04:52:40.877Z,999.48
2019-05-28T04:53:50.593Z,999.49
2019-05-28T04:55:00.570Z,999.48
2019-05-28T04:56:10.565Z,999.48
2019-05-28T04:57:20.032Z,999.48
2019-05-28T04:58:29.982Z,999.45
2019-05-28T04:59:39.940Z,999.47
2019-05-28T05:00:49.904Z,999.49
2019-05-28T05:01:59.640Z,999.5
2019-05-28T05:03:09.686Z,999.45
2019-05-28T05:04:19.647Z,999.44
2019-05-28T05:05:29.392Z,999.46
2019-05-28T05:06:39.337Z,999.46
2019-05-28T05:07:49.299Z,999.51
2019-05-28T05:08:59.015Z,999.48
2019-05-28T05:10:08.977Z,999.54
2019-05-28T05:11:22.040Z,999.53
2019-05-28T05:12:32.035Z,999.52
2019-05-28T05:13:42.026Z,999.55
2019-05-28T05:14:52.051Z,999.49
2019-05-28T05:16:01.917Z,999.53
2019-05-28T05:17:11.647Z,999.53
2019-05-28T05:18:21.618Z,999.5
2019-05-28T05:19:31.588Z,999.48
2019-05-28T05:20:41.541Z,999.49
2019-05-28T05:21:51.253Z,999.46
2019-05-28T05:23:00.978Z,999.45
2019-05-28T05:24:10.946Z,999.47
2019-05-28T05:25:20.921Z,999.52
2019-05-28T05:26:30.950Z,999.48
2019-05-28T05:27:40.461Z,999.51
2019-05-28T05:28:50.177Z,999.53
2019-05-28T05:30:00.136Z,999.51
2019-05-28T05:31:09.919Z,999.53
2019-05-28T05:32:19.902Z,999.53
2019-05-28T05:33:32.738Z,999.53
2019-05-28T05:34:42.696Z,999.53
2019-05-28T05:35:52.648Z,999.5
2019-05-28T05:37:02.352Z,999.49
2019-05-28T05:38:12.046Z,999.53
2019-05-28T05:39:21.777Z,999.57
2019-05-28T05:40:31.757Z,999.56
2019-05-28T05:41:41.476Z,999.59
2019-05-28T05:42:51.190Z,999.59
2019-05-28T05:44:00.643Z,999.59
2019-05-28T05:45:10.598Z,999.6
2019-05-28T05:46:20.571Z,999.59
2019-05-28T05:47:30.292Z,999.58
2019-05-28T05:48:40.003Z,999.57
2019-05-28T05:49:49.710Z,999.6
2019-05-28T05:50:59.665Z,999.6
2019-05-28T05:52:09.431Z,999.6
2019-05-28T05:53:19.179Z,999.65
2019-05-28T05:54:28.897Z,999.68
2019-05-28T05:55:38.869Z,999.69
2019-05-28T05:56:48.824Z,999.65
2019-05-28T05:57:58.782Z,999.69
2019-05-28T05:59:08.780Z,999.66
2019-05-28T06:00:18.478Z,999.68
2019-05-28T06:01:28.476Z,999.68
2019-05-28T06:02:38.444Z,999.67
2019-05-28T06:03:48.780Z,999.69
2019-05-28T06:04:58.744Z,999.71
2019-05-28T06:06:08.269Z,999.74
2019-05-28T06:07:17.726Z,999.73
2019-05-28T06:08:28.006Z,999.75
2019-05-28T06:09:39.483Z,999.72
2019-05-28T06:10:49.228Z,999.74
2019-05-28T06:11:59.218Z,999.74
2019-05-28T06:13:09.220Z,999.73
2019-05-28T06:14:19.183Z,999.74
2019-05-28T06:15:28.917Z,999.7
2019-05-28T06:16:38.901Z,999.74
2019-05-28T06:17:48.853Z,999.7
2019-05-28T06:18:58.583Z,999.71
2019-05-28T06:20:08.742Z,999.68
2019-05-28T06:21:19.097Z,999.7
2019-05-28T06:22:29.177Z,999.75
2019-05-28T06:23:39.410Z,999.73
2019-05-28T06:24:49.468Z,999.74
2019-05-28T06:25:59.298Z,999.76
2019-05-28T06:27:09.264Z,999.77
2019-05-28T06:28:22.334Z,999.8
2019-05-28T06:29:31.878Z,999.82
2019-05-28T06:30:41.445Z,999.77
2019-05-28T06:31:51.401Z,999.77
2019-05-28T06:33:01.445Z,999.73
2019-05-28T06:34:11.384Z,999.73
2019-05-28T06:35:21.118Z,999.74
2019-05-28T06:36:31.123Z,999.69
2019-05-28T06:37:41.088Z,999.73
2019-05-28T06:38:50.800Z,999.75
2019-05-28T06:40:00.414Z,999.68
2019-05-28T06:41:09.888Z,999.66
2019-05-28T06:42:19.868Z,999.67
2019-05-28T06:43:29.836Z,999.72
2019-05-28T06:44:39.317Z,999.71
2019-05-28T06:45:49.849Z,999.72
2019-05-28T06:46:59.814Z,999.74
2019-05-28T06:48:09.809Z,999.72
2019-05-28T06:49:19.803Z,999.75
2019-05-28T06:50:29.804Z,999.72
2019-05-28T06:51:39.772Z,999.75
2019-05-28T06:52:49.742Z,999.75
2019-05-28T06:53:59.747Z,999.73
2019-05-28T06:55:12.285Z,999.79
2019-05-28T06:56:21.794Z,999.79
2019-05-28T06:57:31.519Z,999.8
2019-05-28T06:58:41.238Z,999.82
2019-05-28T06:59:51.265Z,999.83
2019-05-28T07:01:01.030Z,999.85
2019-05-28T07:02:11.761Z,999.88
2019-05-28T07:03:21.580Z,999.89
2019-05-28T07:04:32.924Z,999.97
2019-05-28T07:05:42.900Z,999.92
2019-05-28T07:07:11.091Z,999.98
2019-05-28T07:08:21.075Z,999.94
2019-05-28T07:09:30.864Z,999.99
2019-05-28T07:10:56.391Z,999.96
2019-05-28T07:12:07.129Z,999.97
2019-05-28T07:13:20.884Z,1000
2019-05-28T07:14:30.617Z,999.99
2019-05-28T07:15:40.367Z,999.98
2019-05-28T07:16:53.458Z,999.98
2019-05-28T07:18:03.299Z,1000.03
2019-05-28T07:19:23.816Z,1000.04
2019-05-28T07:20:34.584Z,1000.01
2019-05-28T07:21:44.607Z,1000.02
2019-05-28T07:22:54.399Z,1000.05
2019-05-28T07:24:05.109Z,1000.02
2019-05-28T07:25:15.236Z,1000.03
2019-05-28T07:26:24.996Z,1000.02
2019-05-28T07:27:35.011Z,1000.03
2019-05-28T07:28:44.794Z,1000.05
2019-05-28T07:29:54.787Z,1000.03
2019-05-28T07:31:04.600Z,1000.07
2019-05-28T07:32:14.592Z,1000.08
2019-05-28T07:33:24.549Z,1000.08
2019-05-28T07:34:38.263Z,1000.07
2019-05-28T07:35:48.250Z,1000.08
2019-05-28T07:36:58.274Z,1000.1
2019-05-28T07:38:07.988Z,1000.12
2019-05-28T07:39:17.952Z,1000.14
2019-05-28T07:40:31.385Z,1000.13
2019-05-28T07:41:41.994Z,1000.12
2019-05-28T07:42:51.966Z,1000.12
2019-05-28T07:44:01.698Z,1000.15
2019-05-28T07:45:11.451Z,1000.17
2019-05-28T07:46:21.637Z,1000.18
2019-05-28T07:47:31.633Z,1000.19
2019-05-28T07:48:41.684Z,1000.19
2019-05-28T07:49:51.141Z,1000.2
2019-05-28T07:51:00.611Z,1000.21
2019-05-28T07:52:10.396Z,1000.24
2019-05-28T07:53:19.905Z,1000.29
2019-05-28T07:54:46.281Z,1000.29
2019-05-28T07:55:55.984Z,1000.24
2019-05-28T07:57:06.135Z,1000.26
2019-05-28T07:58:15.597Z,1000.27
2019-05-28T07:59:25.304Z,1000.22
2019-05-28T08:00:35.269Z,1000.21
2019-05-28T08:01:44.989Z,1000.22
2019-05-28T08:02:54.987Z,1000.22
2019-05-28T08:04:04.501Z,1000.24
2019-05-28T08:05:16.967Z,1000.24
2019-05-28T08:06:27.215Z,1000.22
2019-05-28T08:07:54.137Z,1000.21
2019-05-28T08:09:03.880Z,1000.18
2019-05-28T08:10:13.847Z,1000.28
2019-05-28T08:11:24.211Z,1000.23
2019-05-28T08:12:33.930Z,1000.26
2019-05-28T08:13:43.200Z,1000.25
2019-05-28T08:14:55.513Z,1000.28
2019-05-28T08:16:23.917Z,1000.29
2019-05-28T08:17:33.952Z,1000.24
2019-05-28T08:18:43.683Z,1000.25
2019-05-28T08:19:53.427Z,1000.25
2019-05-28T08:21:03.149Z,1000.24
2019-05-28T08:22:13.841Z,1000.22
2019-05-28T08:23:23.894Z,1000.21
2019-05-28T08:24:33.951Z,1000.2
2019-05-28T08:25:47.107Z,1000.23
2019-05-28T08:26:57.283Z,1000.26
2019-05-28T08:28:19.068Z,1000.2
2019-05-28T08:29:29.480Z,1000.2
2019-05-28T08:30:39.027Z,1000.16
2019-05-28T08:31:49.066Z,1000.17
2019-05-28T08:32:58.846Z,1000.17
2019-05-28T08:34:08.693Z,1000.13
2019-05-28T08:35:22.451Z,1000.16
2019-05-28T08:36:32.227Z,1000.17
2019-05-28T08:37:41.934Z,1000.15
2019-05-28T08:38:51.646Z,1000.22
2019-05-28T08:40:01.679Z,1000.21
2019-05-28T08:41:11.492Z,1000.19
2019-05-28T08:42:21.248Z,1000.24
2019-05-28T08:43:31.571Z,1000.24
2019-05-28T08:44:41.078Z,1000.23
2019-05-28T08:45:51.151Z,1000.31
2019-05-28T08:47:01.123Z,1000.32
2019-05-28T08:48:11.095Z,1000.31
2019-05-28T08:49:23.892Z,1000.26
2019-05-28T08:50:35.242Z,1000.27
2019-05-28T08:51:45.337Z,1000.25
2019-05-28T08:52:55.073Z,1000.28
2019-05-28T08:54:05.118Z,1000.29
2019-05-28T08:55:15.205Z,1000.29
2019-05-28T08:56:24.932Z,1000.26
2019-05-28T08:57:34.755Z,1000.27
2019-05-28T08:58:45.139Z,1000.28
2019-05-28T08:59:54.884Z,1000.3
2019-05-28T09:01:05.010Z,1000.29
2019-05-28T09:02:26.842Z,1000.31
2019-05-28T09:03:37.444Z,1000.32
2019-05-28T09:04:47.157Z,1000.34
2019-05-28T09:05:57.229Z,1000.27
2019-05-28T09:07:06.956Z,1000.3
2019-05-28T09:08:16.706Z,1000.29
2019-05-28T09:09:43.517Z,1000.28
2019-05-28T09:10:52.990Z,1000.28
2019-05-28T09:12:03.340Z,1000.37
2019-05-28T09:13:14.553Z,1000.33
2019-05-28T09:14:24.339Z,1000.34
2019-05-28T09:15:59.817Z,1000.31
2019-05-28T09:17:09.861Z,1000.35
2019-05-28T09:18:19.586Z,1000.34
2019-05-28T09:19:29.077Z,1000.37
2019-05-28T09:20:39.060Z,1000.41
2019-05-28T09:21:49.413Z,1000.38
2019-05-28T09:22:59.395Z,1000.41
2019-05-28T09:24:09.387Z,1000.45
2019-05-28T09:25:19.407Z,1000.45
2019-05-28T09:26:29.148Z,1000.46
2019-05-28T09:27:39.120Z,1000.51
2019-05-28T09:28:49.103Z,1000.46
2019-05-28T09:29:59.246Z,1000.51
2019-05-28T09:31:09.530Z,1000.49
2019-05-28T09:32:19.499Z,1000.47
2019-05-28T09:33:29.575Z,1000.49
2019-05-28T09:34:39.759Z,1000.44
2019-05-28T09:36:06.227Z,1000.48
2019-05-28T09:37:17.349Z,1000.55
2019-05-28T09:38:27.332Z,1000.55
2019-05-28T09:39:37.347Z,1000.53
2019-05-28T09:40:50.295Z,1000.51
2019-05-28T09:42:00.716Z,1000.53
2019-05-28T09:43:10.829Z,1000.49
2019-05-28T09:44:20.855Z,1000.52
2019-05-28T09:45:30.878Z,1000.54
2019-05-28T09:46:40.654Z,1000.53
2019-05-28T09:47:50.651Z,1000.5
2019-05-28T09:49:02.692Z,1000.47
2019-05-28T09:50:29.147Z,1000.45
2019-05-28T09:51:40.047Z,1000.49
2019-05-28T09:52:54.726Z,1000.47
2019-05-28T09:54:04.997Z,1000.5
2019-05-28T09:55:14.509Z,1000.5
2019-05-28T09:56:24.453Z,1000.5
2019-05-28T09:57:46.656Z,1000.53
2019-05-28T09:58:57.533Z,1000.49
2019-05-28T10:00:07.313Z,1000.48
2019-05-28T10:01:20.337Z,1000.56
2019-05-28T10:02:30.050Z,1000.5
2019-05-28T10:03:39.798Z,1000.48
2019-05-28T10:04:50.250Z,1000.51
2019-05-28T10:06:15.434Z,1000.52
2019-05-28T10:07:42.230Z,1000.44
2019-05-28T10:08:52.202Z,1000.5
2019-05-28T10:10:01.940Z,1000.47
2019-05-28T10:11:11.828Z,1000.45
2019-05-28T10:12:22.162Z,1000.5
2019-05-28T10:13:38.706Z,1000.51
2019-05-28T10:14:49.760Z,1000.51
2019-05-28T10:15:59.738Z,1000.5
2019-05-28T10:17:09.646Z,1000.53
2019-05-28T10:18:19.119Z,1000.54
2019-05-28T10:19:28.899Z,1000.52
2019-05-28T10:20:38.456Z,1000.57
2019-05-28T10:21:48.431Z,1000.56
2019-05-28T10:22:58.135Z,1000.54
2019-05-28T10:24:08.179Z,1000.55
2019-05-28T10:25:18.159Z,1000.58
2019-05-28T10:26:28.442Z,1000.62
2019-05-28T10:27:38.162Z,1000.6
2019-05-28T10:29:07.008Z,1000.61
2019-05-28T10:30:16.745Z,1000.65
2019-05-28T10:31:26.494Z,1000.64
2019-05-28T10:32:36.462Z,1000.63
2019-05-28T10:33:46.454Z,1000.65
2019-05-28T10:35:03.546Z,1000.65
2019-05-28T10:36:14.133Z,1000.68
2019-05-28T10:37:43.182Z,1000.64
2019-05-28T10:38:53.232Z,1000.62
2019-05-28T10:40:02.983Z,1000.64
2019-05-28T10:41:12.728Z,1000.6
2019-05-28T10:42:22.747Z,1000.62
2019-05-28T10:43:32.762Z,1000.62
2019-05-28T10:44:45.068Z,1000.58
2019-05-28T10:45:55.606Z,1000.65
2019-05-28T10:47:06.658Z,1000.59
2019-05-28T10:48:16.659Z,1000.62
2019-05-28T10:49:26.657Z,1000.65
2019-05-28T10:50:36.640Z,1000.62
2019-05-28T10:51:46.638Z,1000.61
2019-05-28T10:52:56.363Z,1000.66
2019-05-28T10:54:06.153Z,1000.66
2019-05-28T10:55:16.288Z,1000.71
2019-05-28T10:56:26.370Z,1000.74
2019-05-28T10:57:36.575Z,1000.67
2019-05-28T10:58:46.708Z,1000.68
2019-05-28T10:59:56.694Z,1000.68
2019-05-28T11:01:07.009Z,1000.7
2019-05-28T11:02:16.543Z,1000.67
2019-05-28T11:03:26.550Z,1000.63
2019-05-28T11:04:36.521Z,1000.69
2019-05-28T11:05:46.395Z,1000.67
2019-05-28T11:06:56.102Z,1000.71
2019-05-28T11:08:05.823Z,1000.66
2019-05-28T11:09:15.282Z,1000.68
2019-05-28T11:10:25.160Z,1000.7
2019-05-28T11:11:35.226Z,1000.68
2019-05-28T11:12:44.993Z,1000.68
2019-05-28T11:13:55.002Z,1000.68
2019-05-28T11:15:05.014Z,1000.64
2019-05-28T11:16:15.090Z,1000.63
2019-05-28T11:17:24.711Z,1000.64
2019-05-28T11:18:34.498Z,1000.6
2019-05-28T11:19:44.470Z,1000.56
2019-05-28T11:20:54.458Z,1000.6
2019-05-28T11:22:09.988Z,1000.59
2019-05-28T11:23:19.996Z,1000.63
2019-05-28T11:24:29.972Z,1000.64
2019-05-28T11:25:39.728Z,1000.55
2019-05-28T11:26:49.722Z,1000.54
2019-05-28T11:27:59.749Z,1000.55
2019-05-28T11:29:09.791Z,1000.54
2019-05-28T11:30:20.084Z,1000.53
2019-05-28T11:31:30.230Z,1000.53
2019-05-28T11:32:40.224Z,1000.49
2019-05-28T11:33:51.472Z,1000.5
2019-05-28T11:35:01.470Z,1000.58
2019-05-28T11:36:11.535Z,1000.59
2019-05-28T11:37:21.514Z,1000.6
2019-05-28T11:38:31.250Z,1000.59
2019-05-28T11:39:41.231Z,1000.6
2019-05-28T11:40:50.983Z,1000.57
2019-05-28T11:42:00.961Z,1000.57
2019-05-28T11:43:10.768Z,1000.58
2019-05-28T11:44:20.506Z,1000.49
2019-05-28T11:45:30.502Z,1000.63
2019-05-28T11:46:40.207Z,1000.58
2019-05-28T11:47:51.092Z,1000.6
2019-05-28T11:49:01.336Z,1000.69
2019-05-28T11:50:11.390Z,1000.66
2019-05-28T11:51:21.487Z,1000.69
2019-05-28T11:52:31.418Z,1000.63
2019-05-28T11:53:41.452Z,1000.64
2019-05-28T11:54:51.434Z,1000.67
2019-05-28T11:56:00.907Z,1000.64
2019-05-28T11:57:10.905Z,1000.61
2019-05-28T11:58:20.901Z,1000.65
2019-05-28T11:59:30.364Z,1000.63
2019-05-28T12:00:40.373Z,1000.65
2019-05-28T12:01:50.360Z,1000.71
2019-05-28T12:03:00.360Z,1000.68
2019-05-28T12:04:10.553Z,1000.68
2019-05-28T12:05:20.679Z,1000.67
2019-05-28T12:06:30.624Z,1000.62
2019-05-28T12:07:45.841Z,1000.62
2019-05-28T12:08:59.460Z,1000.67
2019-05-28T12:10:09.191Z,1000.67
2019-05-28T12:11:19.210Z,1000.64
2019-05-28T12:12:28.482Z,1000.73
2019-05-28T12:13:38.548Z,1000.74
2019-05-28T12:14:48.579Z,1000.73
2019-05-28T12:15:58.312Z,1000.74
2019-05-28T12:17:08.297Z,1000.74
2019-05-28T12:18:18.284Z,1000.78
2019-05-28T12:19:28.286Z,1000.77
2019-05-28T12:20:38.470Z,1000.78
2019-05-28T12:21:48.257Z,1000.77
2019-05-28T12:23:10.115Z,1000.76
2019-05-28T12:24:21.465Z,1000.82
2019-05-28T12:25:35.917Z,1000.81
2019-05-28T12:26:45.955Z,1000.77
2019-05-28T12:27:56.443Z,1000.83
2019-05-28T12:29:06.458Z,1000.82
2019-05-28T12:30:18.318Z,1000.74
2019-05-28T12:31:28.660Z,1000.76
2019-05-28T12:32:38.654Z,1000.8
2019-05-28T12:33:48.422Z,1000.79
2019-05-28T12:34:57.923Z,1000.86
2019-05-28T12:36:26.948Z,1000.83
2019-05-28T12:37:47.678Z,1000.83
2019-05-28T12:38:58.658Z,1000.82
2019-05-28T12:40:08.662Z,1000.85
2019-05-28T12:41:18.627Z,1000.84
2019-05-28T12:42:28.112Z,1000.85
2019-05-28T12:43:37.839Z,1000.88
2019-05-28T12:44:47.752Z,1000.88
2019-05-28T12:46:16.547Z,1000.88
2019-05-28T12:47:26.268Z,1000.88
2019-05-28T12:48:36.273Z,1000.87
2019-05-28T12:49:46.246Z,1000.9
2019-05-28T12:50:56.246Z,1000.9
2019-05-28T12:52:09.651Z,1000.84
2019-05-28T12:53:19.440Z,1000.89
2019-05-28T12:54:48.578Z,1000.92
2019-05-28T12:55:58.300Z,1000.85
2019-05-28T12:57:08.292Z,1000.89
2019-05-28T12:58:18.543Z,1000.86
2019-05-28T12:59:46.629Z,1000.88
2019-05-28T13:00:56.612Z,1000.85
2019-05-28T13:02:06.754Z,1000.87
2019-05-28T13:03:16.750Z,1000.86
2019-05-28T13:04:26.745Z,1000.92
2019-05-28T13:05:36.737Z,1000.87
2019-05-28T13:06:46.721Z,1000.89
2019-05-28T13:08:08.062Z,1000.92
2019-05-28T13:09:19.109Z,1000.96
2019-05-28T13:10:29.067Z,1000.94
2019-05-28T13:11:38.546Z,1000.94
2019-05-28T13:12:48.518Z,1000.96
2019-05-28T13:13:59.164Z,1000.95
2019-05-28T13:15:09.273Z,1000.93
2019-05-28T13:16:19.300Z,1000.93
2019-05-28T13:17:29.085Z,1000.95
2019-05-28T13:18:38.847Z,1000.88
2019-05-28T13:19:48.849Z,1000.87
2019-05-28T13:20:58.781Z,1000.89
2019-05-28T13:22:08.606Z,1000.9
2019-05-28T13:23:18.218Z,1000.89
2019-05-28T13:24:28.206Z,1000.95
2019-05-28T13:25:38.217Z,1000.99
2019-05-28T13:26:47.942Z,1000.97
2019-05-28T13:27:57.807Z,1000.97
2019-05-28T13:29:07.803Z,1000.98
2019-05-28T13:30:17.995Z,1000.96
2019-05-28T13:31:28.039Z,1000.94
2019-05-28T13:32:38.033Z,1000.96
2019-05-28T13:33:48.996Z,1000.99
2019-05-28T13:34:58.732Z,1000.98
2019-05-28T13:36:09.298Z,1000.99
2019-05-28T13:37:19.313Z,1000.99
2019-05-28T13:38:29.378Z,1000.98
2019-05-28T13:39:43.121Z,1001
2019-05-28T13:40:52.934Z,1000.99
2019-05-28T13:42:02.905Z,1001.01
2019-05-28T13:43:12.940Z,1000.98
2019-05-28T13:44:23.043Z,1000.96
2019-05-28T13:45:33.029Z,1000.99
2019-05-28T13:46:43.016Z,1001
2019-05-28T13:47:52.871Z,1000.97
2019-05-28T13:49:02.683Z,1000.97
2019-05-28T13:50:12.735Z,1000.97
2019-05-28T13:51:22.716Z,1000.98
2019-05-28T13:52:32.705Z,1000.93
2019-05-28T13:53:42.689Z,1000.97
2019-05-28T13:54:52.677Z,1001.01
2019-05-28T13:56:02.683Z,1001.01
2019-05-28T13:57:12.418Z,1001.03
2019-05-28T13:58:22.491Z,1000.99
2019-05-28T13:59:32.260Z,1001
2019-05-28T14:00:42.234Z,1000.97
2019-05-28T14:01:52.285Z,1001.03
2019-05-28T14:03:02.408Z,1001.06
2019-05-28T14:04:13.876Z,1001.1
2019-05-28T14:05:23.847Z,1001.06
2019-05-28T14:06:33.831Z,1001.08
2019-05-28T14:07:49.591Z,1001.06
2019-05-28T14:08:59.317Z,1001.08
2019-05-28T14:10:09.044Z,1001.07
2019-05-28T14:11:19.358Z,1001.08
2019-05-28T14:12:28.841Z,1001.08
2019-05-28T14:13:38.854Z,1001.09
2019-05-28T14:14:48.852Z,1001.06
2019-05-28T14:15:58.841Z,1001.12
2019-05-28T14:17:11.755Z,1001.13
2019-05-28T14:18:21.482Z,1001.11
2019-05-28T14:19:31.223Z,1001.13
2019-05-28T14:20:40.975Z,1001.11
2019-05-28T14:21:50.971Z,1001.11
2019-05-28T14:23:04.839Z,1001.14
2019-05-28T14:24:14.882Z,1001.11
2019-05-28T14:25:24.875Z,1001.1
2019-05-28T14:26:34.860Z,1001.15
2019-05-28T14:27:44.831Z,1001.14
2019-05-28T14:28:54.838Z,1001.08
2019-05-28T14:30:04.827Z,1001.1
2019-05-28T14:31:14.805Z,1001.13